Time;durP1;ratioP1;P1;durP2;ratioP2;P2;SDS_P1;SDS_P2;PMS_P1;PMS_P2;Temp;Humidity;BMP_temperature;BMP_pressure;BME280_temperature;BME280_humidity;BME280_pressure;Samples;Min_cycle;Max_cycle;Signal;HPM_P1;HPM_P2
2022/08/30 00:03:12;;;;;;;5.68;5.10;;;;;;;18.48;74.63;93633.34;5092780;28;20047;-54
2022/08/30 00:05:38;;;;;;;5.82;5.13;;;;;;;18.42;75.21;93618.19;5092649;28;20031;-50
2022/08/30 00:08:04;;;;;;;5.93;5.32;;;;;;;18.43;75.80;93630.84;5092554;28;20600;-57
2022/08/30 00:10:30;;;;;;;6.47;5.00;;;;;;;18.46;76.28;93636.00;5072722;28;20024;-52
2022/08/30 00:12:56;;;;;;;6.65;5.55;;;;;;;18.38;76.96;93624.25;5072682;28;20028;-52
2022/08/30 00:15:22;;;;;;;6.35;5.72;;;;;;;18.44;77.23;93626.69;5072847;28;20158;-53
2022/08/30 00:17:48;;;;;;;5.57;4.75;;;;;;;18.49;76.94;93631.28;5072957;28;20471;-53
2022/08/30 00:20:25;;;;;;;7.20;5.28;;;;;;;18.54;77.08;93625.34;5072883;28;20390;-53
2022/08/30 00:22:51;;;;;;;5.88;5.30;;;;;;;18.57;76.92;93626.22;5072646;28;20025;-54
2022/08/30 00:25:18;;;;;;;6.07;4.60;;;;;;;18.61;76.73;93626.50;5072466;28;20032;-53
2022/08/30 00:27:44;;;;;;;5.35;4.82;;;;;;;18.58;76.51;93624.91;5072339;28;20046;-54
2022/08/30 00:30:11;;;;;;;5.65;5.15;;;;;;;18.60;76.33;93627.84;5074631;28;20034;-52
2022/08/30 00:32:37;;;;;;;5.70;5.07;;;;;;;18.52;77.19;93627.28;5092571;28;20027;-55
2022/08/30 00:35:04;;;;;;;6.32;5.28;;;;;;;18.46;78.16;93621.28;5092365;28;20101;-54
2022/08/30 00:37:30;;;;;;;7.43;5.85;;;;;;;18.45;78.13;93623.31;5091867;28;20490;-54
2022/08/30 00:39:55;;;;;;;6.13;5.53;;;;;;;18.57;77.25;93634.59;5092116;28;20088;-54
2022/08/30 00:42:21;;;;;;;5.68;5.18;;;;;;;18.56;76.56;93636.66;5092156;28;20044;-55
2022/08/30 00:44:47;;;;;;;7.88;6.05;;;;;;;18.03;78.51;93612.78;5092009;28;20513;-60
2022/08/30 00:47:13;;;;;;;7.75;6.20;;;;;;;18.05;79.27;93640.09;5071161;28;20040;-58
2022/08/30 00:49:41;;;;;;;7.32;5.97;;;;;;;18.10;78.55;93634.19;5070515;28;20028;-57
2022/08/30 00:52:07;;;;;;;6.95;6.18;;;;;;;18.13;78.41;93641.41;5069785;28;20082;-58
2022/08/30 00:54:35;;;;;;;6.43;5.63;;;;;;;18.11;79.09;93638.47;5069997;28;20784;-57
2022/08/30 00:57:01;;;;;;;7.35;5.13;;;;;;;18.05;79.49;93631.72;5070517;28;20024;-57
2022/08/30 00:59:27;;;;;;;6.63;5.93;;;;;;;18.16;78.87;93628.31;5070136;28;20036;-58
2022/08/30 01:01:53;;;;;;;6.95;5.50;;;;;;;18.20;78.98;93631.38;5070561;28;20064;-57
2022/08/30 01:04:21;;;;;;;10.05;5.90;;;;;;;18.16;79.58;93626.25;5071768;28;20059;-58
2022/08/30 01:06:46;;;;;;;6.97;6.03;;;;;;;18.18;79.44;93628.44;5070644;28;20520;-59
2022/08/30 01:09:13;;;;;;;6.75;6.05;;;;;;;18.18;79.58;93629.19;5082093;28;20036;-55
2022/08/30 01:11:40;;;;;;;5.93;5.10;;;;;;;18.32;79.46;93632.19;5090895;28;20043;-54
2022/08/30 01:14:07;;;;;;;5.63;4.90;;;;;;;18.32;79.58;93623.81;5090564;28;20593;-55
2022/08/30 01:16:34;;;;;;;7.53;5.35;;;;;;;18.27;80.19;93621.34;5088467;28;20182;-56
2022/08/30 01:19:00;;;;;;;7.55;5.95;;;;;;;18.16;80.47;93620.66;5082431;28;20390;-55
2022/08/30 01:21:38;;;;;;;5.95;5.15;;;;;;;18.28;79.17;93620.03;5090726;28;20077;-58
2022/08/30 01:24:04;;;;;;;8.30;5.97;;;;;;;18.28;78.67;93617.22;5091598;28;20024;-55
2022/08/30 01:26:31;;;;;;;7.47;5.97;;;;;;;18.34;78.27;93617.63;5087479;28;20409;-58
2022/08/30 01:29:00;;;;;;;8.05;6.05;;;;;;;18.34;78.86;93623.22;5069650;28;20025;-59
2022/08/30 01:31:26;;;;;;;6.50;5.15;;;;;;;18.38;78.33;93627.03;5071456;28;20408;-55
2022/08/30 01:33:52;;;;;;;6.85;5.43;;;;;;;18.41;78.16;93620.22;5071061;28;20066;-56
2022/08/30 01:36:18;;;;;;;6.45;5.43;;;;;;;18.30;78.65;93626.47;5071284;28;20098;-57
2022/08/30 01:38:48;;;;;;;12.35;6.10;;;;;;;18.34;78.85;93615.59;5077608;28;20036;-56
2022/08/30 01:41:17;;;;;;;6.53;5.55;;;;;;;18.21;79.70;93609.75;5071857;28;20035;-56
2022/08/30 01:43:42;;;;;;;;;;;;;;;18.36;79.04;93623.38;5070185;28;20498;-57
2022/08/30 01:46:10;;;;;;;7.15;5.53;;;;;;;18.31;79.33;93616.03;5087063;28;19915;-57
2022/08/30 01:48:37;;;;;;;5.97;5.35;;;;;;;18.29;79.71;93621.47;5090684;28;20048;-54
2022/08/30 01:51:03;;;;;;;12.98;6.10;;;;;;;18.28;79.80;93612.34;5091242;28;20529;-55
2022/08/30 01:53:28;;;;;;;6.88;5.45;;;;;;;18.35;80.20;93614.25;5091078;28;20055;-54
2022/08/30 01:55:54;;;;;;;7.28;5.97;;;;;;;18.32;79.75;93614.72;5080598;28;20067;-54
2022/08/30 01:58:20;;;;;;;6.78;6.07;;;;;;;18.33;79.39;93618.97;5070686;28;20052;-56
2022/08/30 02:00:45;;;;;;;6.85;6.03;;;;;;;18.17;79.83;93619.31;5071805;28;20060;-55
2022/08/30 02:03:11;;;;;;;6.18;5.53;;;;;;;18.32;78.49;93620.31;5090928;28;20031;-56
2022/08/30 02:05:36;;;;;;;5.97;5.38;;;;;;;18.27;78.81;93615.75;5090616;28;20545;-54
2022/08/30 02:08:03;;;;;;;8.15;6.43;;;;;;;18.34;78.45;93621.19;5090394;28;20039;-53
2022/08/30 02:10:29;;;;;;;7.90;6.40;;;;;;;18.24;78.66;93620.47;5078468;28;20024;-52
2022/08/30 02:12:54;;;;;;;7.25;5.85;;;;;;;18.22;79.09;93614.75;5090603;28;20114;-54
2022/08/30 02:15:20;;;;;;;7.20;5.78;;;;;;;18.21;79.27;93618.13;5083275;28;20062;-50
2022/08/30 02:17:45;;;;;;;7.80;6.00;;;;;;;18.33;78.71;93613.38;5090792;28;20099;-59
2022/08/30 02:20:11;;;;;;;7.72;5.63;;;;;;;18.21;78.48;93595.78;5090448;28;20107;-59
2022/08/30 02:22:36;;;;;;;8.13;6.57;;;;;;;18.24;78.68;93608.53;5090312;28;20024;-58
2022/08/30 02:25:04;;;;;;;7.78;5.88;;;;;;;18.13;79.31;93610.66;5090714;28;20035;-58
2022/08/30 02:27:30;;;;;;;7.65;6.40;;;;;;;18.14;79.63;93606.56;5090234;28;20039;-58
2022/08/30 02:29:57;;;;;;;7.00;6.13;;;;;;;18.25;79.18;93607.22;5090402;28;20028;-52
2022/08/30 02:32:22;;;;;;;6.43;5.80;;;;;;;18.30;78.91;93608.97;5090578;28;20055;-50
2022/08/30 02:34:48;;;;;;;9.30;6.63;;;;;;;18.19;79.18;93608.28;5090459;28;20493;-55
2022/08/30 02:37:14;;;;;;;7.55;6.10;;;;;;;18.07;80.22;93601.13;5090610;28;20136;-56
2022/08/30 02:39:40;;;;;;;6.35;5.75;;;;;;;18.18;79.85;93603.28;5090558;28;20125;-54
2022/08/30 02:42:05;;;;;;;7.72;6.63;;;;;;;18.05;80.54;93593.34;5090379;28;20027;-55
2022/08/30 02:44:31;;;;;;;7.80;7.07;;;;;;;17.96;81.28;93593.38;5090461;28;20784;-55
2022/08/30 02:46:56;;;;;;;6.90;5.57;;;;;;;17.94;80.94;93593.25;5089534;28;20052;-50
2022/08/30 02:49:23;;;;;;;10.90;6.45;;;;;;;18.02;80.55;93596.59;5090498;28;20079;-50
2022/08/30 02:51:49;;;;;;;8.10;6.75;;;;;;;18.08;80.35;93603.31;5088894;28;20530;-53
2022/08/30 02:54:18;;;;;;;6.53;5.45;;;;;;;18.15;80.12;93594.03;5078745;28;20039;-55
2022/08/30 02:56:46;;;;;;;7.18;6.32;;;;;;;18.18;79.86;93601.25;5079013;28;20013;-55
2022/08/30 02:59:11;;;;;;;8.98;5.68;;;;;;;18.22;79.38;93600.03;5079618;28;20020;-58
2022/08/30 03:01:37;;;;;;;6.47;5.60;;;;;;;18.23;79.74;93595.91;5079655;28;20412;-58
2022/08/30 03:04:03;;;;;;;8.45;6.47;;;;;;;18.11;80.02;93593.03;5076925;28;20024;-58
2022/08/30 03:06:29;;;;;;;8.30;6.30;;;;;;;18.15;80.02;93596.81;5084652;28;20020;-58
2022/08/30 03:08:54;;;;;;;12.13;8.02;;;;;;;18.13;80.10;93591.09;5080264;28;20024;-58
2022/08/30 03:11:21;;;;;;;6.90;6.07;;;;;;;18.12;79.86;93595.25;5090255;28;20020;-58
2022/08/30 03:13:46;;;;;;;7.05;5.82;;;;;;;18.11;80.36;93604.94;5089938;28;20028;-59
2022/08/30 03:16:12;;;;;;;6.45;5.78;;;;;;;17.90;81.69;93604.13;5089750;28;20020;-59
2022/08/30 03:18:38;;;;;;;6.63;5.95;;;;;;;17.92;81.60;93610.59;5090172;28;20030;-59
2022/08/30 03:21:10;;;;;;;7.82;6.63;;;;;;;18.05;80.43;93598.19;5069637;28;20107;-58
2022/08/30 03:23:35;;;;;;;9.75;6.53;;;;;;;18.14;79.58;93606.56;5069707;28;20489;-58
2022/08/30 03:26:01;;;;;;;7.55;5.90;;;;;;;17.98;80.58;93610.28;5069779;28;20039;-58
2022/08/30 03:28:26;;;;;;;7.15;6.30;;;;;;;18.02;80.14;93604.97;5068569;28;20047;-55
2022/08/30 03:30:52;;;;;;;7.65;6.15;;;;;;;18.02;80.43;93605.72;5069947;28;20028;-57
2022/08/30 03:33:17;;;;;;;7.63;6.07;;;;;;;17.99;80.31;93604.13;5069925;28;20530;-56
2022/08/30 03:35:43;;;;;;;7.13;6.32;;;;;;;17.88;80.66;93601.22;5069916;28;20029;-57
2022/08/30 03:38:08;;;;;;;8.95;6.25;;;;;;;18.00;80.97;93608.38;5069883;28;20481;-54
2022/08/30 03:40:34;;;;;;;6.53;5.82;;;;;;;18.00;81.47;93613.94;5071170;28;20025;-54
2022/08/30 03:43:00;;;;;;;7.55;5.78;;;;;;;18.04;81.36;93613.50;5092368;28;20028;-57
2022/08/30 03:45:25;;;;;;;7.00;5.82;;;;;;;18.02;80.73;93619.69;5091821;28;20047;-58
2022/08/30 03:47:51;;;;;;;6.32;5.70;;;;;;;18.08;80.94;93620.09;5093264;28;20035;-58
2022/08/30 03:50:16;;;;;;;12.02;6.47;;;;;;;18.04;80.48;93613.50;5093742;28;20481;-58
2022/08/30 03:52:44;;;;;;;7.82;6.10;;;;;;;18.06;80.02;93613.66;5093367;28;20540;-58
2022/08/30 03:55:10;;;;;;;6.78;5.97;;;;;;;18.13;79.56;93609.91;5093528;28;20050;-58
2022/08/30 03:57:35;;;;;;;7.65;5.65;;;;;;;18.07;80.01;93612.31;5093288;28;20478;-56
2022/08/30 04:00:01;;;;;;;8.20;6.45;;;;;;;18.05;80.49;93609.38;5093499;28;20016;-52
2022/08/30 04:02:27;;;;;;;8.13;6.45;;;;;;;18.02;80.42;93608.50;5093460;28;20576;-56
2022/08/30 04:04:53;;;;;;;12.15;7.60;;;;;;;18.04;80.57;93614.22;5093371;28;20028;-58
2022/08/30 04:07:18;;;;;;;7.68;6.65;;;;;;;18.08;80.28;93608.91;5093214;28;20043;-58
2022/08/30 04:09:45;;;;;;;12.95;7.05;;;;;;;18.04;80.58;93616.31;5078683;28;20040;-53
2022/08/30 04:12:10;;;;;;;8.05;6.50;;;;;;;18.08;80.37;93625.69;5073005;28;20051;-49
2022/08/30 04:14:36;;;;;;;9.98;7.57;;;;;;;18.03;80.59;93618.38;5073020;28;20024;-54
2022/08/30 04:17:02;;;;;;;9.70;8.05;;;;;;;18.07;80.65;93623.47;5090211;28;20123;-55
2022/08/30 04:19:27;;;;;;;9.50;7.88;;;;;;;18.08;81.00;93624.97;5092150;28;20039;-56
2022/08/30 04:21:53;;;;;;;10.05;7.43;;;;;;;18.02;80.99;93630.84;5092707;28;20036;-56
2022/08/30 04:24:18;;;;;;;9.43;7.35;;;;;;;18.08;80.28;93631.25;5092699;28;20024;-57
2022/08/30 04:26:44;;;;;;;8.95;6.70;;;;;;;18.09;80.25;93634.78;5092650;28;20086;-55
2022/08/30 04:29:11;;;;;;;11.30;6.95;;;;;;;18.12;80.44;93634.38;5092426;28;20023;-55
2022/08/30 04:31:36;;;;;;;7.70;6.60;;;;;;;18.16;80.23;93636.69;5092883;28;20059;-55
2022/08/30 04:34:02;;;;;;;10.65;7.03;;;;;;;18.22;80.24;93633.56;5092821;28;20032;-54
2022/08/30 04:36:27;;;;;;;8.38;6.68;;;;;;;18.27;80.08;93638.84;5092479;28;20578;-52
2022/08/30 04:38:53;;;;;;;11.95;7.30;;;;;;;18.32;79.89;93639.88;5092807;28;20031;-55
2022/08/30 04:41:19;;;;;;;8.68;7.30;;;;;;;18.29;80.02;93644.56;5092357;28;20024;-52
2022/08/30 04:43:49;;;;;;;7.93;7.10;;;;;;;18.28;79.99;93642.38;5092321;28;20020;-54
2022/08/30 04:46:14;;;;;;;7.95;6.85;;;;;;;18.33;80.14;93644.13;5080433;28;20490;-56
2022/08/30 04:48:40;;;;;;;9.18;6.38;;;;;;;18.29;80.64;93647.38;5071848;28;20074;-50
2022/08/30 04:51:08;;;;;;;8.73;7.32;;;;;;;18.37;80.27;93639.53;5071809;28;20029;-50
2022/08/30 04:53:34;;;;;;;9.50;6.78;;;;;;;18.40;80.08;93643.94;5071952;28;20044;-52
2022/08/30 04:55:59;;;;;;;8.57;7.63;;;;;;;18.40;79.85;93637.63;5078854;28;20061;-58
2022/08/30 04:58:25;;;;;;;11.35;7.43;;;;;;;18.51;79.30;93642.59;5092144;28;20034;-54
2022/08/30 05:00:50;;;;;;;9.10;7.10;;;;;;;18.44;79.73;93651.88;5092216;28;20127;-53
2022/08/30 05:03:16;;;;;;;8.63;7.25;;;;;;;18.47;79.45;93656.31;5092205;28;20020;-56
2022/08/30 05:05:51;;;;;;;8.30;7.25;;;;;;;18.24;79.51;93630.91;5092170;28;20092;-57
2022/08/30 05:08:19;;;;;;;10.63;7.18;;;;;;;18.35;80.52;93650.56;5088464;28;20024;-55
2022/08/30 05:10:50;;;;;;;11.23;7.65;;;;;;;18.37;80.65;93652.78;5071940;28;20413;-55
2022/08/30 05:13:17;;;;;;;9.90;7.47;;;;;;;18.24;80.90;93645.63;5089258;28;20035;-58
2022/08/30 05:15:43;;;;;;;10.88;7.60;;;;;;;18.39;80.68;93652.91;5092015;28;20032;-58
2022/08/30 05:18:09;;;;;;;12.30;8.00;;;;;;;18.37;80.83;93655.56;5091968;28;20397;-58
2022/08/30 05:20:36;;;;;;;8.35;7.15;;;;;;;18.42;80.20;93660.13;5092004;28;20028;-58
2022/08/30 05:23:01;;;;;;;8.75;7.85;;;;;;;18.44;79.96;93657.47;5091586;28;20031;-59
2022/08/30 05:25:30;;;;;;;9.75;8.75;;;;;;;18.44;80.24;93660.25;5091515;28;20072;-57
2022/08/30 05:27:56;;;;;;;10.88;8.82;;;;;;;18.35;80.68;93652.63;5091592;28;20042;-58
2022/08/30 05:30:23;;;;;;;10.82;8.32;;;;;;;18.27;81.35;93658.41;5091373;28;20036;-58
2022/08/30 05:32:49;;;;;;;9.50;8.20;;;;;;;18.40;81.00;93663.50;5091351;28;20039;-58
2022/08/30 05:35:15;;;;;;;10.23;8.77;;;;;;;18.42;80.60;93674.84;5095768;28;20027;-59
2022/08/30 05:37:41;;;;;;;14.32;8.77;;;;;;;18.43;80.76;93669.97;5091280;28;20021;-59
2022/08/30 05:40:07;;;;;;;12.10;9.45;;;;;;;18.45;81.06;93662.47;5090431;28;20024;-56
2022/08/30 05:42:34;;;;;;;12.80;8.90;;;;;;;18.39;81.16;93664.09;5083232;28;20076;-57
2022/08/30 05:44:59;;;;;;;8.82;7.70;;;;;;;18.46;81.33;93666.00;5076682;28;20032;-55
2022/08/30 05:47:25;;;;;;;10.40;8.48;;;;;;;18.53;81.79;93663.03;5081491;28;20429;-56
2022/08/30 05:49:50;;;;;;;13.65;7.80;;;;;;;18.57;81.64;93662.56;5079568;28;20124;-56
2022/08/30 05:52:17;;;;;;;8.80;7.30;;;;;;;18.42;82.04;93643.34;5078512;28;20019;-57
2022/08/30 05:54:51;;;;;;;88.30;46.45;;;;;;;18.66;81.98;93664.59;5072879;28;20494;-50
2022/08/30 05:57:17;;;;;;;41.35;26.20;;;;;;;18.74;82.23;93653.94;5070760;28;20052;-56
2022/08/30 05:59:43;;;;;;;12.90;9.52;;;;;;;18.87;81.91;93667.41;5070268;28;20028;-56
2022/08/30 06:02:09;;;;;;;11.70;8.32;;;;;;;18.93;81.06;93662.94;5087234;28;20028;-55
2022/08/30 06:04:35;;;;;;;10.75;7.95;;;;;;;19.01;80.51;93659.22;5086427;28;20043;-53
2022/08/30 06:07:01;;;;;;;11.77;8.40;;;;;;;19.03;79.95;93660.09;5078280;28;20516;-54
2022/08/30 06:09:26;;;;;;;11.05;8.55;;;;;;;19.10;80.17;93658.44;5085096;28;20069;-54
2022/08/30 06:11:52;;;;;;;11.13;8.85;;;;;;;19.14;79.49;93655.91;5090570;28;20028;-56
2022/08/30 06:14:17;;;;;;;11.27;8.98;;;;;;;19.19;79.34;93657.63;5089677;28;20543;-54
2022/08/30 06:16:44;;;;;;;12.68;9.65;;;;;;;19.08;79.37;93636.63;5089776;28;20043;-56
2022/08/30 06:19:11;;;;;;;13.13;10.00;;;;;;;19.18;79.85;93654.09;5090861;28;20027;-57
2022/08/30 06:21:38;;;;;;;11.65;9.43;;;;;;;19.16;79.48;93648.38;5090274;28;20523;-52
2022/08/30 06:24:05;;;;;;;11.10;8.95;;;;;;;19.19;79.19;93654.84;5090802;28;20047;-54
2022/08/30 06:26:31;;;;;;;10.18;7.78;;;;;;;19.24;79.02;93653.75;5090517;28;20028;-50
2022/08/30 06:28:57;;;;;;;10.52;8.88;;;;;;;19.29;78.86;93649.88;5086804;28;20115;-52
2022/08/30 06:31:24;;;;;;;15.13;8.23;;;;;;;19.27;79.00;93650.50;5073534;28;20024;-51
2022/08/30 06:33:50;;;;;;;11.68;7.90;;;;;;;19.26;79.67;93648.28;5076163;28;20040;-53
2022/08/30 06:36:19;;;;;;;10.88;8.55;;;;;;;19.30;79.54;93654.88;5087599;28;20024;-54
2022/08/30 06:38:46;;;;;;;11.13;8.85;;;;;;;19.33;79.57;93659.28;5087903;28;20149;-53
2022/08/30 06:41:14;;;;;;;10.13;7.55;;;;;;;19.33;80.02;93653.69;5087648;28;20043;-49
2022/08/30 06:43:39;;;;;;;8.97;8.00;;;;;;;19.34;80.74;93660.03;5087815;28;20676;-53
2022/08/30 06:46:09;;;;;;;9.25;8.18;;;;;;;19.35;81.16;93664.31;5085287;28;20032;-55
2022/08/30 06:48:34;;;;;;;9.68;7.90;;;;;;;19.26;81.41;93671.41;5087361;28;20044;-52
2022/08/30 06:51:00;;;;;;;10.65;7.70;;;;;;;19.39;81.84;93665.31;5087536;28;20028;-51
2022/08/30 06:53:29;;;;;;;10.00;7.82;;;;;;;19.50;80.77;93663.88;5085337;28;20027;-51
2022/08/30 06:55:56;;;;;;;11.38;8.15;;;;;;;19.57;79.94;93674.16;5088605;28;20043;-53
2022/08/30 06:58:22;;;;;;;10.25;7.88;;;;;;;19.68;79.81;93667.84;5091483;28;20429;-50
2022/08/30 07:00:48;;;;;;;10.35;7.80;;;;;;;19.78;79.47;93676.16;5086567;28;20024;-51
2022/08/30 07:03:13;;;;;;;9.90;7.60;;;;;;;19.85;79.59;93681.56;5089105;28;20141;-52
2022/08/30 07:05:38;;;;;;;10.38;8.07;;;;;;;20.00;78.71;93677.56;5096929;28;20081;-51
2022/08/30 07:08:04;;;;;;;8.85;7.07;;;;;;;20.18;78.33;93692.72;5088907;28;20485;-50
2022/08/30 07:10:30;;;;;;;9.23;7.90;;;;;;;20.32;77.39;93693.63;5089776;28;20047;-49
2022/08/30 07:12:55;;;;;;;10.88;8.63;;;;;;;20.37;77.99;93687.66;5084766;28;20024;-53
2022/08/30 07:15:21;;;;;;;11.40;8.63;;;;;;;20.33;77.79;93681.09;5083280;28;20024;-49
2022/08/30 07:20:32;;;;;;;10.73;8.50;;;;;;;20.10;79.46;93690.16;5073166;28;20035;-53
2022/08/30 07:22:57;;;;;;;8.68;7.47;;;;;;;20.13;79.61;93688.94;5072169;28;20405;-50
2022/08/30 07:25:23;;;;;;;8.98;8.05;;;;;;;20.24;79.40;93690.31;5085445;28;20036;-55
2022/08/30 07:27:50;;;;;;;10.02;7.80;;;;;;;20.20;79.83;93698.47;5082009;28;20562;-52
2022/08/30 07:30:17;;;;;;;10.13;8.38;;;;;;;20.28;79.66;93687.78;5075010;28;20044;-55
2022/08/30 07:32:42;;;;;;;9.60;7.65;;;;;;;20.44;79.31;93693.66;5082339;28;20099;-55
2022/08/30 07:35:08;;;;;;;8.25;7.28;;;;;;;20.53;78.64;93692.81;5092959;28;20564;-57
2022/08/30 07:37:34;;;;;;;9.13;7.47;;;;;;;20.44;77.56;93702.06;5093151;28;20099;-54
2022/08/30 07:39:59;;;;;;;8.93;7.10;;;;;;;20.43;77.71;93695.72;5075932;28;20060;-57
2022/08/30 07:42:25;;;;;;;10.02;7.70;;;;;;;20.44;76.65;93697.19;5072847;28;20025;-55
2022/08/30 07:44:50;;;;;;;11.13;7.68;;;;;;;20.50;76.86;93691.22;5082368;28;20051;-59
2022/08/30 07:47:16;;;;;;;8.05;7.03;;;;;;;20.58;76.73;93698.03;5081504;28;20055;-59
2022/08/30 07:49:41;;;;;;;8.73;7.20;;;;;;;20.60;77.12;93698.16;5080743;28;20035;-59
2022/08/30 07:52:07;;;;;;;9.57;8.57;;;;;;;20.53;76.41;93693.53;5083581;28;20034;-58
2022/08/30 07:54:32;;;;;;;9.75;7.43;;;;;;;20.71;75.88;93703.06;5087006;28;20032;-59
2022/08/30 07:56:58;;;;;;;8.65;7.43;;;;;;;20.69;75.23;93702.19;5086396;28;20523;-59
2022/08/30 07:59:24;;;;;;;11.18;6.90;;;;;;;20.77;75.33;93713.94;5081921;28;20052;-59
2022/08/30 08:01:49;;;;;;;8.73;6.35;;;;;;;20.83;72.62;93717.84;5080853;28;20032;-59
2022/08/30 08:04:15;;;;;;;8.75;7.50;;;;;;;20.90;72.31;93711.22;5082705;28;20020;-59
2022/08/30 08:06:41;;;;;;;8.30;7.15;;;;;;;20.91;73.57;93709.88;5081214;28;20024;-60
2022/08/30 08:09:07;;;;;;;9.15;7.05;;;;;;;20.96;72.71;93720.00;5081991;28;20028;-59
2022/08/30 08:11:34;;;;;;;10.40;6.68;;;;;;;20.84;72.85;93705.25;5079296;28;20032;-55
2022/08/30 08:13:59;;;;;;;10.18;7.07;;;;;;;20.97;72.55;93720.72;5083891;28;20019;-59
2022/08/30 08:16:27;;;;;;;8.82;7.40;;;;;;;20.92;73.27;93719.75;5082456;28;20101;-58
2022/08/30 08:18:54;;;;;;;8.07;7.28;;;;;;;21.00;72.74;93719.53;5090337;28;20526;-60
2022/08/30 08:21:21;;;;;;;8.75;7.22;;;;;;;21.07;73.70;93713.66;5078793;28;20043;-58
2022/08/30 08:23:46;;;;;;;7.88;6.40;;;;;;;20.96;73.25;93720.00;5079310;28;20020;-61
2022/08/30 08:26:12;;;;;;;6.70;6.00;;;;;;;20.98;72.91;93725.75;5078183;28;20544;-60
2022/08/30 08:28:38;;;;;;;8.40;7.10;;;;;;;20.97;73.15;93721.47;5077913;28;20017;-60
2022/08/30 08:31:16;;;;;;;8.82;6.72;;;;;;;21.10;73.21;93723.69;5076199;28;20036;-63
2022/08/30 08:33:42;;;;;;;7.57;6.88;;;;;;;21.18;73.96;93723.44;5076617;28;20469;-59
2022/08/30 08:36:07;;;;;;;6.80;6.15;;;;;;;21.30;72.98;93734.66;5081610;28;20053;-59
2022/08/30 08:38:33;;;;;;;7.90;6.53;;;;;;;21.35;73.01;93725.88;5088627;28;20069;-59
2022/08/30 08:41:10;;;;;;;8.02;6.97;;;;;;;21.33;72.92;93722.19;5088515;28;20024;-59
2022/08/30 08:43:36;;;;;;;8.02;7.03;;;;;;;21.37;72.97;93719.63;5087136;28;20028;-59
2022/08/30 08:46:20;;;;;;;8.05;7.25;;;;;;;21.40;73.27;93721.19;5080463;28;20038;-59
2022/08/30 08:48:50;;;;;;;7.85;6.38;;;;;;;21.43;73.68;93728.41;5088837;28;20032;-59
2022/08/30 08:54:08;;;;;;;9.38;7.72;;;;;;;21.40;73.75;93726.81;5087702;28;20093;-59
2022/08/30 08:56:33;;;;;;;7.90;6.80;;;;;;;21.38;72.42;93726.69;5082852;28;20033;-59
2022/08/30 08:58:59;;;;;;;7.32;6.45;;;;;;;21.43;72.42;93726.31;5078386;28;20028;-59
2022/08/30 09:01:28;;;;;;;8.48;7.05;;;;;;;21.40;72.54;93729.63;5081536;28;20028;-57
2022/08/30 09:03:54;;;;;;;8.13;7.20;;;;;;;21.41;72.76;93729.03;5076335;28;20020;-60
2022/08/30 09:06:48;;;;;;;7.65;6.63;;;;;;;21.43;73.09;93734.00;5071263;28;20032;-61
2022/08/30 09:09:13;;;;;;;7.22;6.28;;;;;;;;;;5081768;28;20408;-60
2022/08/30 09:11:39;;;;;;;6.45;5.78;;;;;;;21.39;69.98;93731.72;5091752;28;20103;-60
2022/08/30 09:14:09;;;;;;;6.90;6.07;;;;;;;21.43;70.08;93731.22;5089748;28;20031;-61
2022/08/30 09:16:45;;;;;;;7.63;6.32;;;;;;;21.49;71.10;93728.75;5090180;28;20550;-59
2022/08/30 09:19:11;;;;;;;10.65;6.75;;;;;;;21.55;70.80;93723.50;5091183;28;20051;-58
2022/08/30 09:21:37;;;;;;;6.55;5.53;;;;;;;21.61;68.29;93732.28;5090022;28;20026;-58
2022/08/30 09:24:04;;;;;;;8.98;6.82;;;;;;;21.62;69.26;93737.28;5091320;28;20088;-59
2022/08/30 09:26:35;;;;;;;7.97;6.72;;;;;;;21.66;69.61;93731.88;5091246;28;20564;-58
2022/08/30 09:29:01;;;;;;;7.68;6.75;;;;;;;21.74;69.45;93731.63;5091390;28;20099;-59
2022/08/30 09:31:31;;;;;;;9.43;7.05;;;;;;;21.72;70.37;93729.41;5081232;28;20051;-58
2022/08/30 09:34:04;;;;;;;10.75;7.20;;;;;;;21.73;70.49;93741.38;5078903;28;20042;-59
2022/08/30 09:36:50;;;;;;;8.95;7.20;;;;;;;21.78;70.49;93734.66;5071072;28;20017;-59
2022/08/30 09:39:19;;;;;;;9.93;6.78;;;;;;;21.84;70.44;93732.22;5070217;28;20409;-59
2022/08/30 09:41:48;;;;;;;6.60;5.90;;;;;;;21.85;70.34;93737.22;5083154;28;20054;-60
2022/08/30 09:44:19;;;;;;;;;;;;;;;21.84;70.05;93735.03;5090281;28;20028;-59
2022/08/30 09:46:56;;;;;;;7.78;6.90;;;;;;;21.53;71.77;93729.72;5074568;28;19923;-61
2022/08/30 09:49:37;;;;;;;10.63;6.80;;;;;;;21.39;72.63;93725.34;5069644;28;20103;-59
2022/08/30 09:52:44;;;;;;;8.65;7.72;;;;;;;21.40;73.19;93716.31;5070362;28;20493;-59
2022/08/30 09:55:30;;;;;;;9.23;7.00;;;;;;;21.32;72.71;93718.66;5082671;28;20155;-68
2022/08/30 09:58:01;;;;;;;8.70;7.47;;;;;;;21.23;73.53;93721.59;5076186;28;20020;-60
2022/08/30 10:00:30;;;;;;;8.32;6.03;;;;;;;21.08;74.32;93720.75;5077905;28;20665;-62
2022/08/30 10:03:03;;;;;;;8.60;6.93;;;;;;;21.09;73.86;93725.03;5075773;28;20024;-59
2022/08/30 10:05:57;;;;;;;8.95;7.03;;;;;;;21.10;73.92;93718.06;5072136;28;20032;-57
2022/08/30 10:08:26;;;;;;;13.00;7.88;;;;;;;21.18;74.29;93717.09;5083419;28;20058;-58
2022/08/30 10:11:03;;;;;;;7.70;6.90;;;;;;;21.16;74.85;93708.56;5083673;28;20781;-48
2022/08/30 10:13:37;;;;;;;9.43;8.02;;;;;;;21.22;74.94;93706.84;5067198;28;20395;-46
2022/08/30 10:16:44;;;;;;;10.88;6.57;;;;;;;21.25;73.98;93704.84;5067136;28;20032;-56
2022/08/30 10:19:39;;;;;;;9.38;8.18;;;;;;;21.26;73.65;93697.91;5060357;28;20097;-58
2022/08/30 10:22:18;;;;;;;8.68;6.60;;;;;;;21.30;74.02;93696.06;5081187;28;20036;-59
2022/08/30 10:24:47;;;;;;;12.90;7.45;;;;;;;21.41;74.77;93694.56;5086789;28;20594;-59
2022/08/30 10:27:24;;;;;;;10.15;8.07;;;;;;;21.43;74.28;93689.06;5086810;28;20035;-59
2022/08/30 10:29:53;;;;;;;20.02;11.85;;;;;;;21.47;72.36;93678.81;5086413;28;20035;-59
2022/08/30 10:32:34;;;;;;;9.00;7.07;;;;;;;21.46;70.74;93679.41;5087855;28;20028;-59
2022/08/30 10:35:13;;;;;;;8.05;5.85;;;;;;;21.43;68.73;93675.03;5087800;28;20035;-58
2022/08/30 10:37:47;;;;;;;6.70;5.10;;;;;;;21.25;68.44;93655.03;5087068;28;20500;-56
2022/08/30 10:43:29;;;;;;;10.13;8.13;;;;;;;21.30;65.48;93661.63;5088318;28;20055;-59
2022/08/30 10:45:58;;;;;;;6.82;5.13;;;;;;;21.23;64.28;93657.72;5087967;28;20051;-59
2022/08/30 10:48:28;;;;;;;6.35;4.72;;;;;;;21.19;60.78;93663.13;5086271;28;20048;-63
2022/08/30 10:50:56;;;;;;;8.27;5.82;;;;;;;21.21;61.40;93660.44;5068454;28;20047;-59
2022/08/30 10:53:31;;;;;;;5.93;4.40;;;;;;;21.28;63.18;93650.28;5066288;28;20202;-60
2022/08/30 10:56:19;;;;;;;5.18;4.57;;;;;;;21.27;62.79;93655.16;5069852;28;20024;-54
2022/08/30 10:58:46;;;;;;;5.07;4.57;;;;;;;21.42;64.26;93648.28;5074507;28;20029;-57
2022/08/30 11:01:24;;;;;;;5.60;4.57;;;;;;;21.54;63.18;93654.59;5065992;28;20028;-57
2022/08/30 11:04:27;;;;;;;5.90;5.13;;;;;;;21.63;65.05;93648.81;5066307;28;20059;-58
2022/08/30 11:07:17;;;;;;;4.78;4.30;;;;;;;21.75;65.22;93643.88;5067867;28;20039;-59
2022/08/30 11:10:07;;;;;;;5.38;4.18;;;;;;;21.68;63.33;93644.88;5079362;28;20031;-60
2022/08/30 11:12:48;;;;;;;6.60;4.35;;;;;;;21.51;63.78;93630.53;5087324;28;20147;-61
2022/08/30 11:15:21;;;;;;;5.30;4.45;;;;;;;21.64;63.88;93643.91;5087559;28;20036;-61
2022/08/30 11:18:01;;;;;;;6.65;4.60;;;;;;;21.84;62.87;93645.81;5081796;28;20032;-60
2022/08/30 11:20:34;;;;;;;6.30;4.63;;;;;;;22.01;63.00;93641.81;5077080;28;20116;-60
2022/08/30 11:23:12;;;;;;;6.10;5.13;;;;;;;22.02;63.94;93642.53;5078548;28;20092;-61
2022/08/30 11:26:00;;;;;;;7.30;5.78;;;;;;;22.05;64.21;93638.47;5083360;28;20028;-60
2022/08/30 11:28:34;;;;;;;7.00;5.20;;;;;;;22.28;64.41;93641.88;5077725;28;20666;-60
2022/08/30 11:31:19;;;;;;;5.60;4.40;;;;;;;22.43;63.20;93641.28;5079943;28;20505;-61
2022/08/30 11:33:56;;;;;;;7.45;6.75;;;;;;;22.59;59.61;93647.06;5078643;28;20520;-58
2022/08/30 11:36:28;;;;;;;4.85;4.32;;;;;;;22.67;60.32;93641.88;5080539;28;20019;-61
2022/08/30 11:38:53;;;;;;;4.35;3.85;;;;;;;22.79;58.90;93645.31;5080252;28;20056;-61
2022/08/30 11:41:31;;;;;;;6.80;4.10;;;;;;;22.93;60.77;93645.31;5079227;28;20420;-63
2022/08/30 11:44:13;;;;;;;6.10;4.65;;;;;;;23.00;59.45;93638.63;5087530;28;20032;-63
2022/08/30 11:46:40;;;;;;;4.20;3.80;;;;;;;23.15;57.83;93632.38;5084957;28;20048;-58
2022/08/30 11:49:14;;;;;;;5.10;4.00;;;;;;;23.34;57.67;93640.41;5087183;28;20070;-53